Taillefer 3 — FGD5050 — position and weather

sailwx.info

Track history (hours):
 
Tides and Currents Weather Stations Pressure Air Temp Water Temp Dewpoint Dewpoint Depression Visibility Wind Speed Wind Dir Waves Ship Positions

Taillefer 3

Last reported at 2017-Nov-16 18:33 UTC. Time now 2017-Nov-21 02:32 UTC.
Position N 47°45' W 003°21'.

Length 40 m; draft 2.8 m.

Type: Cargo ship. MMSI: 227566810.

Date/timePositionNaut miles runAvg speedWind from/ knotsBaromVisibWave heightAir tempDewpointWater temp
2017-Nov-16 18:33N 47°45' W 003°21'0 0.0
2017-Nov-16 18:30N 47°45' W 003°21'1 2.2
2017-Nov-16 18:00N 47°44' W 003°22'4 8.7
2017-Nov-16 17:30N 47°39' W 003°21'510.1
2017-Nov-16 17:00N 47°35' W 003°17'5 9.9
2017-Nov-16 16:30N 47°30' W 003°14'510.0
2017-Nov-16 16:00N 47°26' W 003°11'5 9.8
2017-Nov-16 15:30N 47°21' W 003°09'0 0.6
2017-Nov-16 15:00N 47°21' W 003°09'0 0.0
2017-Nov-16 14:30N 47°21' W 003°09'0 0.0
2017-Nov-16 14:00N 47°21' W 003°09'0 0.0
2017-Nov-16 13:30N 47°21' W 003°09'0 0.0
2017-Nov-16 13:00N 47°21' W 003°09'0 0.0
2017-Nov-16 12:30N 47°21' W 003°09'0 0.4
2017-Nov-16 12:00N 47°21' W 003°09'3 6.8
2017-Nov-16 11:30N 47°24' W 003°11'4 8.2
2017-Nov-16 11:00N 47°27' W 003°14'5 9.6
2017-Nov-16 10:30N 47°32' W 003°18'5 9.4
2017-Nov-16 10:00N 47°36' W 003°20'5 9.3
2017-Nov-16 09:30N 47°40' W 003°22'4 8.4
2017-Nov-16 09:00N 47°45' W 003°21'0 0.2
2017-Nov-16 08:30N 47°45' W 003°21'0 0.0
2017-Nov-16 08:00N 47°45' W 003°21'0 0.0
2017-Nov-16 07:30N 47°45' W 003°21'0 0.0
2017-Nov-16 07:00N 47°45' W 003°21'0 0.0
2017-Nov-16 06:30N 47°45' W 003°21'0 0.0
2017-Nov-16 06:00N 47°45' W 003°21'0 0.0
2017-Nov-16 05:30N 47°45' W 003°21'0 0.0
2017-Nov-16 05:00N 47°45' W 003°21'0 0.0
2017-Nov-16 04:30N 47°45' W 003°21'0 0.0
2017-Nov-16 04:00N 47°45' W 003°21'0 0.0
2017-Nov-16 03:30N 47°45' W 003°21'0 0.0
2017-Nov-16 03:00N 47°45' W 003°21'0 0.0
2017-Nov-16 02:30N 47°45' W 003°21'0 0.0
2017-Nov-16 02:00N 47°45' W 003°21'0 0.0
2017-Nov-16 01:30N 47°45' W 003°21'0 0.0
2017-Nov-16 01:00N 47°45' W 003°21'0 0.0
2017-Nov-16 00:30N 47°45' W 003°21'0 0.0
2017-Nov-16 00:00N 47°45' W 003°21'0 0.0
2017-Nov-15 23:30N 47°45' W 003°21'0 0.0
2017-Nov-15 23:00N 47°45' W 003°21'0 0.0
2017-Nov-15 22:30N 47°45' W 003°21'0 0.0
2017-Nov-15 22:00N 47°45' W 003°21'0 0.0
2017-Nov-15 21:30N 47°45' W 003°21'0 0.0
2017-Nov-15 21:00N 47°45' W 003°21'0 0.0
2017-Nov-15 20:30N 47°45' W 003°21'0 0.0
2017-Nov-15 20:00N 47°45' W 003°21'0 0.0
2017-Nov-15 19:30N 47°45' W 003°21'0 0.0
2017-Nov-15 19:00N 47°45' W 003°21'0 0.0
2017-Nov-15 18:30N 47°45' W 003°21'0 0.0
2017-Nov-15 18:00N 47°45' W 003°21'0 0.0
2017-Nov-15 17:30N 47°45' W 003°21'0 0.0
2017-Nov-15 17:00N 47°45' W 003°21'0 0.0
2017-Nov-15 16:30N 47°45' W 003°21'0 0.0
2017-Nov-15 16:00N 47°45' W 003°21'1 2.1
2017-Nov-15 15:30N 47°45' W 003°19'0 0.0
2017-Nov-15 15:00N 47°45' W 003°19'0 0.0
2017-Nov-15 14:30N 47°45' W 003°19'1 2.1
2017-Nov-15 14:00N 47°45' W 003°21'  
2017-Nov-09 14:33N 47°45' W 003°21'0 0.0
2017-Nov-09 14:30N 47°45' W 003°21'0 0.0
2017-Nov-09 14:00N 47°45' W 003°21'0 0.0
2017-Nov-09 13:30N 47°45' W 003°21'0 0.0
2017-Nov-09 13:00N 47°45' W 003°21'0 0.0
2017-Nov-09 12:30N 47°45' W 003°21'4 7.0
2017-Nov-09 12:00N 47°42' W 003°23'4 7.6
2017-Nov-09 11:30N 47°39' W 003°27'0 0.0
2017-Nov-09 11:00N 47°39' W 003°27'0 0.0
2017-Nov-09 10:30N 47°39' W 003°27'0 0.0
2017-Nov-09 10:00N 47°39' W 003°27'0 0.0
2017-Nov-09 09:30N 47°39' W 003°27'0 0.0
2017-Nov-09 09:00N 47°39' W 003°27'0 0.0
2017-Nov-09 08:30N 47°39' W 003°27'0 0.0
2017-Nov-09 08:00N 47°39' W 003°27'0 0.0
2017-Nov-09 07:30N 47°39' W 003°27'0 0.0
2017-Nov-09 07:00N 47°39' W 003°27'3 6.6
2017-Nov-09 06:30N 47°41' W 003°24'4 8.0
2017-Nov-09 06:00N 47°45' W 003°21'0 0.0
2017-Nov-09 05:30N 47°45' W 003°21'0 0.0
2017-Nov-09 05:00N 47°45' W 003°21'0 0.0
2017-Nov-09 04:30N 47°45' W 003°21'0 0.0
2017-Nov-09 04:00N 47°45' W 003°21'0 0.0
2017-Nov-09 03:30N 47°45' W 003°21'0 0.0
2017-Nov-09 03:00N 47°45' W 003°21'0 0.0
2017-Nov-09 02:30N 47°45' W 003°21'0 0.0
2017-Nov-09 02:00N 47°45' W 003°21'0 0.0
2017-Nov-09 01:30N 47°45' W 003°21'0 0.0
2017-Nov-09 01:00N 47°45' W 003°21'0 0.0
2017-Nov-09 00:30N 47°45' W 003°21'0 0.0
2017-Nov-09 00:00N 47°45' W 003°21'0 0.0
2017-Nov-08 23:30N 47°45' W 003°21'0 0.0
2017-Nov-08 23:00N 47°45' W 003°21'0 0.0
2017-Nov-08 22:30N 47°45' W 003°21'0 0.0
2017-Nov-08 22:00N 47°45' W 003°21'0 0.0
2017-Nov-08 21:30N 47°45' W 003°21'0 0.0
2017-Nov-08 21:00N 47°45' W 003°21'0 0.0
2017-Nov-08 20:30N 47°45' W 003°21'0 0.0
2017-Nov-08 20:00N 47°45' W 003°21'0 0.0
2017-Nov-08 19:30N 47°45' W 003°21'0 0.0
2017-Nov-08 19:00N 47°45' W 003°21'0 0.0
2017-Nov-08 18:30N 47°45' W 003°21'0 0.0
2017-Nov-08 18:00N 47°45' W 003°21'0 0.0
2017-Nov-08 17:30N 47°45' W 003°21'0 0.0
2017-Nov-08 17:00N 47°45' W 003°21'0 0.0
2017-Nov-08 16:30N 47°45' W 003°21'0 0.0
2017-Nov-08 16:00N 47°45' W 003°21'1 2.1
2017-Nov-08 15:30N 47°45' W 003°19'0 0.0
2017-Nov-08 15:00N 47°45' W 003°19'0 0.0
2017-Nov-08 14:30N 47°45' W 003°19'0 0.0
2017-Nov-08 14:00N 47°45' W 003°19'0 0.0
2017-Nov-08 13:30N 47°45' W 003°19'0 1.0
2017-Nov-08 13:00N 47°44' W 003°20'3 6.9
2017-Nov-08 12:30N 47°42' W 003°22'4 9.0
2017-Nov-08 12:00N 47°37' W 003°20'4 9.0
2017-Nov-08 11:30N 47°33' W 003°17'5 9.1
2017-Nov-08 11:00N 47°29' W 003°15'5 9.0
2017-Nov-08 10:30N 47°25' W 003°11'5 9.1
2017-Nov-08 10:00N 47°21' W 003°09'0 0.3
2017-Nov-08 09:30N 47°21' W 003°09'0 0.0
2017-Nov-08 09:00N 47°21' W 003°09'0 0.0
2017-Nov-08 05:23N 47°21' W 003°09'1 1.9
2017-Nov-08 05:00N 47°21' W 003°09'0 0.0
2017-Nov-08 04:30N 47°21' W 003°09'0 0.0
2017-Nov-08 04:00N 47°21' W 003°09'0 0.0
2017-Nov-08 03:30N 47°21' W 003°09'0 0.0
2017-Nov-08 03:00N 47°21' W 003°09'0 0.0
2017-Nov-08 02:30N 47°21' W 003°09'0 0.0
2017-Nov-08 02:00N 47°21' W 003°09'0 0.0
2017-Nov-08 01:30N 47°21' W 003°09'0 0.0
2017-Nov-08 01:00N 47°21' W 003°09'0 0.0
2017-Nov-08 00:30N 47°21' W 003°09'0 0.0
2017-Nov-08 00:00N 47°21' W 003°09'0 0.0
2017-Nov-07 23:30N 47°21' W 003°09'0 0.0
2017-Nov-07 23:00N 47°21' W 003°09'0 0.0
2017-Nov-07 22:30N 47°21' W 003°09'0 0.1
2017-Nov-07 22:00N 47°21' W 003°09'0 0.4
2017-Nov-07 21:30N 47°22' W 003°09'4 8.3
2017-Nov-07 21:00N 47°25' W 003°05'5 9.2
2017-Nov-07 20:30N 47°28' W 003°00'5 9.1
2017-Nov-07 20:00N 47°31' W 002°55'4 7.6
2017-Nov-07 19:30N 47°35' W 002°53'3 6.9
2017-Nov-07 19:00N 47°37' W 002°49'3 5.0
2017-Nov-07 18:30N 47°38' W 002°46'0 0.7
2017-Nov-07 18:00N 47°38' W 002°46'0 0.0
2017-Nov-07 17:30N 47°38' W 002°46'0 0.0
2017-Nov-07 17:00N 47°38' W 002°46'0 0.0
2017-Nov-07 16:30N 47°38' W 002°46'0 0.0
2017-Nov-07 16:00N 47°38' W 002°46'1 2.2
2017-Nov-07 15:30N 47°38' W 002°47'1 2.0
2017-Nov-07 15:00N 47°37' W 002°48'2 4.4
2017-Nov-07 14:30N 47°36' W 002°51'5 9.4
2017-Nov-07 14:00N 47°33' W 002°55'510.3
2017-Nov-07 13:30N 47°28' W 002°60'611.4
2017-Nov-07 13:00N 47°24' W 003°05'4 7.4
2017-Nov-07 12:30N 47°21' W 003°09'0 0.0
2017-Nov-07 12:00N 47°21' W 003°09'0 0.0
2017-Nov-07 11:30N 47°21' W 003°09'0 0.0
2017-Nov-07 11:00N 47°21' W 003°09'0 0.0
2017-Nov-07 10:30N 47°21' W 003°09'1 1.1
2017-Nov-07 10:00N 47°21' W 003°09'0 0.0
2017-Nov-07 09:30N 47°21' W 003°09'0 0.0
2017-Nov-07 09:00N 47°21' W 003°09'0 0.0
2017-Nov-07 08:30N 47°21' W 003°09'0 0.0
2017-Nov-07 08:00N 47°21' W 003°09'0 0.0
2017-Nov-07 07:30N 47°21' W 003°09'0 0.0
2017-Nov-07 07:00N 47°21' W 003°09'0 0.0
2017-Nov-07 06:30N 47°21' W 003°09'1 1.2
2017-Nov-07 06:00N 47°21' W 003°09'5 9.2
2017-Nov-07 05:30N 47°25' W 003°12'5 9.1
2017-Nov-07 05:00N 47°30' W 003°15'5 9.0
2017-Nov-07 04:30N 47°34' W 003°17'4 8.9
2017-Nov-07 04:00N 47°38' W 003°20'4 8.6
2017-Nov-07 03:30N 47°42' W 003°22'3 6.0
2017-Nov-07 03:00N 47°45' W 003°21'0 0.0
2017-Nov-07 02:30N 47°45' W 003°21'0 0.0
2017-Nov-07 02:00N 47°45' W 003°21'0 0.0
2017-Nov-07 01:30N 47°45' W 003°21'0 0.0
2017-Nov-07 01:00N 47°45' W 003°21'0 0.0
2017-Nov-07 00:30N 47°45' W 003°21'0 0.0
2017-Nov-07 00:00N 47°45' W 003°21'0 0.0
2017-Nov-06 23:30N 47°45' W 003°21'0 0.0
2017-Nov-06 23:00N 47°45' W 003°21'0 0.0
2017-Nov-06 22:30N 47°45' W 003°21'0 0.0
2017-Nov-06 22:00N 47°45' W 003°21'0 0.0
2017-Nov-06 21:30N 47°45' W 003°21'0 0.0
2017-Nov-06 21:00N 47°45' W 003°21'0 0.0
2017-Nov-06 20:30N 47°45' W 003°21'  
Track history (hours):
 
Tides and Currents Weather Stations Pressure Air Temp Water Temp Dewpoint Dewpoint Depression Visibility Wind Speed Wind Dir Waves Ship Positions

Taillefer 3

Last reported at 2017-Nov-16 18:33 UTC. Time now 2017-Nov-21 02:32 UTC.
Position N 47°45' W 003°21'.

Length 40 m; draft 2.8 m.

Type: Cargo ship. MMSI: 227566810.

Date/timePositionNaut miles runAvg speedWind from/ knotsBaromVisibWave heightAir tempDewpointWater temp
2017-Nov-16 18:33N 47°45' W 003°21'0 0.0
2017-Nov-16 18:30N 47°45' W 003°21'1 2.2
2017-Nov-16 18:00N 47°44' W 003°22'4 8.7
2017-Nov-16 17:30N 47°39' W 003°21'510.1
2017-Nov-16 17:00N 47°35' W 003°17'5 9.9
2017-Nov-16 16:30N 47°30' W 003°14'510.0
2017-Nov-16 16:00N 47°26' W 003°11'5 9.8
2017-Nov-16 15:30N 47°21' W 003°09'0 0.6
2017-Nov-16 15:00N 47°21' W 003°09'0 0.0
2017-Nov-16 14:30N 47°21' W 003°09'0 0.0
2017-Nov-16 14:00N 47°21' W 003°09'0 0.0
2017-Nov-16 13:30N 47°21' W 003°09'0 0.0
2017-Nov-16 13:00N 47°21' W 003°09'0 0.0
2017-Nov-16 12:30N 47°21' W 003°09'0 0.4
2017-Nov-16 12:00N 47°21' W 003°09'3 6.8
2017-Nov-16 11:30N 47°24' W 003°11'4 8.2
2017-Nov-16 11:00N 47°27' W 003°14'5 9.6
2017-Nov-16 10:30N 47°32' W 003°18'5 9.4
2017-Nov-16 10:00N 47°36' W 003°20'5 9.3
2017-Nov-16 09:30N 47°40' W 003°22'4 8.4
2017-Nov-16 09:00N 47°45' W 003°21'0 0.2
2017-Nov-16 08:30N 47°45' W 003°21'0 0.0
2017-Nov-16 08:00N 47°45' W 003°21'0 0.0
2017-Nov-16 07:30N 47°45' W 003°21'0 0.0
2017-Nov-16 07:00N 47°45' W 003°21'0 0.0
2017-Nov-16 06:30N 47°45' W 003°21'0 0.0
2017-Nov-16 06:00N 47°45' W 003°21'0 0.0
2017-Nov-16 05:30N 47°45' W 003°21'0 0.0
2017-Nov-16 05:00N 47°45' W 003°21'0 0.0
2017-Nov-16 04:30N 47°45' W 003°21'0 0.0
2017-Nov-16 04:00N 47°45' W 003°21'0 0.0
2017-Nov-16 03:30N 47°45' W 003°21'0 0.0
2017-Nov-16 03:00N 47°45' W 003°21'0 0.0
2017-Nov-16 02:30N 47°45' W 003°21'0 0.0
2017-Nov-16 02:00N 47°45' W 003°21'0 0.0
2017-Nov-16 01:30N 47°45' W 003°21'0 0.0
2017-Nov-16 01:00N 47°45' W 003°21'0 0.0
2017-Nov-16 00:30N 47°45' W 003°21'0 0.0
2017-Nov-16 00:00N 47°45' W 003°21'0 0.0
2017-Nov-15 23:30N 47°45' W 003°21'0 0.0
2017-Nov-15 23:00N 47°45' W 003°21'0 0.0
2017-Nov-15 22:30N 47°45' W 003°21'0 0.0
2017-Nov-15 22:00N 47°45' W 003°21'0 0.0
2017-Nov-15 21:30N 47°45' W 003°21'0 0.0
2017-Nov-15 21:00N 47°45' W 003°21'0 0.0
2017-Nov-15 20:30N 47°45' W 003°21'0 0.0
2017-Nov-15 20:00N 47°45' W 003°21'0 0.0
2017-Nov-15 19:30N 47°45' W 003°21'0 0.0
2017-Nov-15 19:00N 47°45' W 003°21'0 0.0
2017-Nov-15 18:30N 47°45' W 003°21'0 0.0
2017-Nov-15 18:00N 47°45' W 003°21'0 0.0
2017-Nov-15 17:30N 47°45' W 003°21'0 0.0
2017-Nov-15 17:00N 47°45' W 003°21'0 0.0
2017-Nov-15 16:30N 47°45' W 003°21'0 0.0
2017-Nov-15 16:00N 47°45' W 003°21'1 2.1
2017-Nov-15 15:30N 47°45' W 003°19'0 0.0
2017-Nov-15 15:00N 47°45' W 003°19'0 0.0
2017-Nov-15 14:30N 47°45' W 003°19'1 2.1
2017-Nov-15 14:00N 47°45' W 003°21'  
2017-Nov-09 14:33N 47°45' W 003°21'0 0.0
2017-Nov-09 14:30N 47°45' W 003°21'0 0.0
2017-Nov-09 14:00N 47°45' W 003°21'0 0.0
2017-Nov-09 13:30N 47°45' W 003°21'0 0.0
2017-Nov-09 13:00N 47°45' W 003°21'0 0.0
2017-Nov-09 12:30N 47°45' W 003°21'4 7.0
2017-Nov-09 12:00N 47°42' W 003°23'4 7.6
2017-Nov-09 11:30N 47°39' W 003°27'0 0.0
2017-Nov-09 11:00N 47°39' W 003°27'0 0.0
2017-Nov-09 10:30N 47°39' W 003°27'0 0.0
2017-Nov-09 10:00N 47°39' W 003°27'0 0.0
2017-Nov-09 09:30N 47°39' W 003°27'0 0.0
2017-Nov-09 09:00N 47°39' W 003°27'0 0.0
2017-Nov-09 08:30N 47°39' W 003°27'0 0.0
2017-Nov-09 08:00N 47°39' W 003°27'0 0.0
2017-Nov-09 07:30N 47°39' W 003°27'0 0.0
2017-Nov-09 07:00N 47°39' W 003°27'3 6.6
2017-Nov-09 06:30N 47°41' W 003°24'4 8.0
2017-Nov-09 06:00N 47°45' W 003°21'0 0.0
2017-Nov-09 05:30N 47°45' W 003°21'0 0.0
2017-Nov-09 05:00N 47°45' W 003°21'0 0.0
2017-Nov-09 04:30N 47°45' W 003°21'0 0.0
2017-Nov-09 04:00N 47°45' W 003°21'0 0.0
2017-Nov-09 03:30N 47°45' W 003°21'0 0.0
2017-Nov-09 03:00N 47°45' W 003°21'0 0.0
2017-Nov-09 02:30N 47°45' W 003°21'0 0.0
2017-Nov-09 02:00N 47°45' W 003°21'0 0.0
2017-Nov-09 01:30N 47°45' W 003°21'0 0.0
2017-Nov-09 01:00N 47°45' W 003°21'0 0.0
2017-Nov-09 00:30N 47°45' W 003°21'0 0.0
2017-Nov-09 00:00N 47°45' W 003°21'0 0.0
2017-Nov-08 23:30N 47°45' W 003°21'0 0.0
2017-Nov-08 23:00N 47°45' W 003°21'0 0.0
2017-Nov-08 22:30N 47°45' W 003°21'0 0.0
2017-Nov-08 22:00N 47°45' W 003°21'0 0.0
2017-Nov-08 21:30N 47°45' W 003°21'0 0.0
2017-Nov-08 21:00N 47°45' W 003°21'0 0.0
2017-Nov-08 20:30N 47°45' W 003°21'0 0.0
2017-Nov-08 20:00N 47°45' W 003°21'0 0.0
2017-Nov-08 19:30N 47°45' W 003°21'0 0.0
2017-Nov-08 19:00N 47°45' W 003°21'0 0.0
2017-Nov-08 18:30N 47°45' W 003°21'0 0.0
2017-Nov-08 18:00N 47°45' W 003°21'0 0.0
2017-Nov-08 17:30N 47°45' W 003°21'0 0.0
2017-Nov-08 17:00N 47°45' W 003°21'0 0.0
2017-Nov-08 16:30N 47°45' W 003°21'0 0.0
2017-Nov-08 16:00N 47°45' W 003°21'1 2.1
2017-Nov-08 15:30N 47°45' W 003°19'0 0.0
2017-Nov-08 15:00N 47°45' W 003°19'0 0.0
2017-Nov-08 14:30N 47°45' W 003°19'0 0.0
2017-Nov-08 14:00N 47°45' W 003°19'0 0.0
2017-Nov-08 13:30N 47°45' W 003°19'0 1.0
2017-Nov-08 13:00N 47°44' W 003°20'3 6.9
2017-Nov-08 12:30N 47°42' W 003°22'4 9.0
2017-Nov-08 12:00N 47°37' W 003°20'4 9.0
2017-Nov-08 11:30N 47°33' W 003°17'5 9.1
2017-Nov-08 11:00N 47°29' W 003°15'5 9.0
2017-Nov-08 10:30N 47°25' W 003°11'5 9.1
2017-Nov-08 10:00N 47°21' W 003°09'0 0.3
2017-Nov-08 09:30N 47°21' W 003°09'0 0.0
2017-Nov-08 09:00N 47°21' W 003°09'0 0.0
2017-Nov-08 05:23N 47°21' W 003°09'1 1.9
2017-Nov-08 05:00N 47°21' W 003°09'0 0.0
2017-Nov-08 04:30N 47°21' W 003°09'0 0.0
2017-Nov-08 04:00N 47°21' W 003°09'0 0.0
2017-Nov-08 03:30N 47°21' W 003°09'0 0.0
2017-Nov-08 03:00N 47°21' W 003°09'0 0.0
2017-Nov-08 02:30N 47°21' W 003°09'0 0.0
2017-Nov-08 02:00N 47°21' W 003°09'0 0.0
2017-Nov-08 01:30N 47°21' W 003°09'0 0.0
2017-Nov-08 01:00N 47°21' W 003°09'0 0.0
2017-Nov-08 00:30N 47°21' W 003°09'0 0.0
2017-Nov-08 00:00N 47°21' W 003°09'0 0.0
2017-Nov-07 23:30N 47°21' W 003°09'0 0.0
2017-Nov-07 23:00N 47°21' W 003°09'0 0.0
2017-Nov-07 22:30N 47°21' W 003°09'0 0.1
2017-Nov-07 22:00N 47°21' W 003°09'0 0.4
2017-Nov-07 21:30N 47°22' W 003°09'4 8.3
2017-Nov-07 21:00N 47°25' W 003°05'5 9.2
2017-Nov-07 20:30N 47°28' W 003°00'5 9.1
2017-Nov-07 20:00N 47°31' W 002°55'4 7.6
2017-Nov-07 19:30N 47°35' W 002°53'3 6.9
2017-Nov-07 19:00N 47°37' W 002°49'3 5.0
2017-Nov-07 18:30N 47°38' W 002°46'0 0.7
2017-Nov-07 18:00N 47°38' W 002°46'0 0.0
2017-Nov-07 17:30N 47°38' W 002°46'0 0.0
2017-Nov-07 17:00N 47°38' W 002°46'0 0.0
2017-Nov-07 16:30N 47°38' W 002°46'0 0.0
2017-Nov-07 16:00N 47°38' W 002°46'1 2.2
2017-Nov-07 15:30N 47°38' W 002°47'1 2.0
2017-Nov-07 15:00N 47°37' W 002°48'2 4.4
2017-Nov-07 14:30N 47°36' W 002°51'5 9.4
2017-Nov-07 14:00N 47°33' W 002°55'510.3
2017-Nov-07 13:30N 47°28' W 002°60'611.4
2017-Nov-07 13:00N 47°24' W 003°05'4 7.4
2017-Nov-07 12:30N 47°21' W 003°09'0 0.0
2017-Nov-07 12:00N 47°21' W 003°09'0 0.0
2017-Nov-07 11:30N 47°21' W 003°09'0 0.0
2017-Nov-07 11:00N 47°21' W 003°09'0 0.0
2017-Nov-07 10:30N 47°21' W 003°09'1 1.1
2017-Nov-07 10:00N 47°21' W 003°09'0 0.0
2017-Nov-07 09:30N 47°21' W 003°09'0 0.0
2017-Nov-07 09:00N 47°21' W 003°09'0 0.0
2017-Nov-07 08:30N 47°21' W 003°09'0 0.0
2017-Nov-07 08:00N 47°21' W 003°09'0 0.0
2017-Nov-07 07:30N 47°21' W 003°09'0 0.0
2017-Nov-07 07:00N 47°21' W 003°09'0 0.0
2017-Nov-07 06:30N 47°21' W 003°09'1 1.2
2017-Nov-07 06:00N 47°21' W 003°09'5 9.2
2017-Nov-07 05:30N 47°25' W 003°12'5 9.1
2017-Nov-07 05:00N 47°30' W 003°15'5 9.0
2017-Nov-07 04:30N 47°34' W 003°17'4 8.9
2017-Nov-07 04:00N 47°38' W 003°20'4 8.6
2017-Nov-07 03:30N 47°42' W 003°22'3 6.0
2017-Nov-07 03:00N 47°45' W 003°21'0 0.0
2017-Nov-07 02:30N 47°45' W 003°21'0 0.0
2017-Nov-07 02:00N 47°45' W 003°21'0 0.0
2017-Nov-07 01:30N 47°45' W 003°21'0 0.0
2017-Nov-07 01:00N 47°45' W 003°21'0 0.0
2017-Nov-07 00:30N 47°45' W 003°21'0 0.0
2017-Nov-07 00:00N 47°45' W 003°21'0 0.0
2017-Nov-06 23:30N 47°45' W 003°21'0 0.0
2017-Nov-06 23:00N 47°45' W 003°21'0 0.0
2017-Nov-06 22:30N 47°45' W 003°21'0 0.0
2017-Nov-06 22:00N 47°45' W 003°21'0 0.0
2017-Nov-06 21:30N 47°45' W 003°21'0 0.0
2017-Nov-06 21:00N 47°45' W 003°21'0 0.0
2017-Nov-06 20:30N 47°45' W 003°21'  

Dump ship's entire track history